sensor_id;sensor_type;location;lat;lon;timestamp;temperature;humidity
4431;DHT22;2228;48.140;11.488;2022-09-09T00:02:28;15.90;99.90
4431;DHT22;2228;48.140;11.488;2022-09-09T00:04:59;15.90;99.90
4431;DHT22;2228;48.140;11.488;2022-09-09T00:07:37;15.90;99.90
4431;DHT22;2228;48.140;11.488;2022-09-09T00:10:16;15.90;99.90
4431;DHT22;2228;48.140;11.488;2022-09-09T00:12:51;16.00;99.90
4431;DHT22;2228;48.140;11.488;2022-09-09T00:15:25;16.00;99.90
4431;DHT22;2228;48.140;11.488;2022-09-09T00:17:58;16.20;99.90
4431;DHT22;2228;48.140;11.488;2022-09-09T00:20:32;16.00;99.90
4431;DHT22;2228;48.140;11.488;2022-09-09T00:23:05;15.90;99.90
4431;DHT22;2228;48.140;11.488;2022-09-09T00:25:45;15.80;99.90
4431;DHT22;2228;48.140;11.488;2022-09-09T00:28:19;15.80;99.90
4431;DHT22;2228;48.140;11.488;2022-09-09T00:30:46;15.90;99.90
4431;DHT22;2228;48.140;11.488;2022-09-09T00:33:19;15.90;99.90
4431;DHT22;2228;48.140;11.488;2022-09-09T00:35:49;15.90;99.90
4431;DHT22;2228;48.140;11.488;2022-09-09T00:38:22;15.90;99.90
4431;DHT22;2228;48.140;11.488;2022-09-09T00:40:52;15.90;99.90
4431;DHT22;2228;48.140;11.488;2022-09-09T00:43:29;15.90;99.90
4431;DHT22;2228;48.140;11.488;2022-09-09T00:46:17;15.80;99.90
4431;DHT22;2228;48.140;11.488;2022-09-09T00:48:57;15.80;99.90
4431;DHT22;2228;48.140;11.488;2022-09-09T00:51:34;15.80;99.90
4431;DHT22;2228;48.140;11.488;2022-09-09T00:54:24;15.70;99.90
4431;DHT22;2228;48.140;11.488;2022-09-09T00:57:07;15.60;99.90
4431;DHT22;2228;48.140;11.488;2022-09-09T00:59:46;15.50;99.90
4431;DHT22;2228;48.140;11.488;2022-09-09T01:02:18;15.50;99.90
4431;DHT22;2228;48.140;11.488;2022-09-09T01:05:12;15.40;99.90
4431;DHT22;2228;48.140;11.488;2022-09-09T01:07:40;15.30;99.90
4431;DHT22;2228;48.140;11.488;2022-09-09T01:10:17;15.30;99.90
4431;DHT22;2228;48.140;11.488;2022-09-09T01:12:49;15.30;99.90
4431;DHT22;2228;48.140;11.488;2022-09-09T01:15:21;15.30;99.90
4431;DHT22;2228;48.140;11.488;2022-09-09T01:17:55;15.20;99.90
4431;DHT22;2228;48.140;11.488;2022-09-09T01:20:29;15.30;99.90
4431;DHT22;2228;48.140;11.488;2022-09-09T01:23:11;15.40;99.90
4431;DHT22;2228;48.140;11.488;2022-09-09T01:26:14;15.40;99.90
4431;DHT22;2228;48.140;11.488;2022-09-09T01:28:44;15.50;99.90
4431;DHT22;2228;48.140;11.488;2022-09-09T01:31:15;15.50;99.90
4431;DHT22;2228;48.140;11.488;2022-09-09T01:33:43;15.60;99.90
4431;DHT22;2228;48.140;11.488;2022-09-09T01:36:13;15.60;99.90
4431;DHT22;2228;48.140;11.488;2022-09-09T01:38:41;15.60;99.90
4431;DHT22;2228;48.140;11.488;2022-09-09T01:41:08;15.60;99.90
4431;DHT22;2228;48.140;11.488;2022-09-09T01:43:37;15.50;99.90
4431;DHT22;2228;48.140;11.488;2022-09-09T01:46:04;15.50;99.90
4431;DHT22;2228;48.140;11.488;2022-09-09T01:48:32;15.50;99.90
4431;DHT22;2228;48.140;11.488;2022-09-09T01:50:59;15.40;99.90
4431;DHT22;2228;48.140;11.488;2022-09-09T01:53:27;15.40;99.90
4431;DHT22;2228;48.140;11.488;2022-09-09T01:56:02;15.30;99.90
4431;DHT22;2228;48.140;11.488;2022-09-09T01:58:37;15.30;99.90
4431;DHT22;2228;48.140;11.488;2022-09-09T02:01:24;15.20;99.90
4431;DHT22;2228;48.140;11.488;2022-09-09T02:03:57;15.20;99.90
4431;DHT22;2228;48.140;11.488;2022-09-09T02:06:31;15.10;99.90
4431;DHT22;2228;48.140;11.488;2022-09-09T02:09:03;15.10;99.90
4431;DHT22;2228;48.140;11.488;2022-09-09T02:11:31;15.10;99.90
4431;DHT22;2228;48.140;11.488;2022-09-09T02:14:01;15.00;99.90
4431;DHT22;2228;48.140;11.488;2022-09-09T02:16:34;15.00;99.90
4431;DHT22;2228;48.140;11.488;2022-09-09T02:19:07;15.00;99.90
4431;DHT22;2228;48.140;11.488;2022-09-09T02:21:37;15.00;99.90
4431;DHT22;2228;48.140;11.488;2022-09-09T02:24:07;15.00;99.90
4431;DHT22;2228;48.140;11.488;2022-09-09T02:26:39;14.90;99.90
4431;DHT22;2228;48.140;11.488;2022-09-09T02:29:11;14.90;99.90
4431;DHT22;2228;48.140;11.488;2022-09-09T02:31:41;14.90;99.90
4431;DHT22;2228;48.140;11.488;2022-09-09T02:34:11;14.90;99.90
4431;DHT22;2228;48.140;11.488;2022-09-09T02:36:40;14.90;99.90
4431;DHT22;2228;48.140;11.488;2022-09-09T02:39:10;15.00;99.90
4431;DHT22;2228;48.140;11.488;2022-09-09T02:41:39;15.00;99.90
4431;DHT22;2228;48.140;11.488;2022-09-09T02:44:10;14.90;99.90
4431;DHT22;2228;48.140;11.488;2022-09-09T02:46:51;15.00;99.90
4431;DHT22;2228;48.140;11.488;2022-09-09T02:49:27;15.00;99.90
4431;DHT22;2228;48.140;11.488;2022-09-09T02:52:01;14.90;99.90
4431;DHT22;2228;48.140;11.488;2022-09-09T02:54:32;14.90;99.90
4431;DHT22;2228;48.140;11.488;2022-09-09T02:57:04;14.80;99.90
4431;DHT22;2228;48.140;11.488;2022-09-09T02:59:33;14.80;99.90
4431;DHT22;2228;48.140;11.488;2022-09-09T03:02:02;14.80;99.90
4431;DHT22;2228;48.140;11.488;2022-09-09T03:04:29;14.80;99.90
4431;DHT22;2228;48.140;11.488;2022-09-09T03:06:56;14.80;99.90
4431;DHT22;2228;48.140;11.488;2022-09-09T03:09:24;14.80;99.90
4431;DHT22;2228;48.140;11.488;2022-09-09T03:11:51;14.80;99.90
4431;DHT22;2228;48.140;11.488;2022-09-09T03:14:20;14.80;99.90
4431;DHT22;2228;48.140;11.488;2022-09-09T03:16:50;14.80;99.90
4431;DHT22;2228;48.140;11.488;2022-09-09T03:19:18;14.80;99.90
4431;DHT22;2228;48.140;11.488;2022-09-09T03:21:45;14.80;99.90
4431;DHT22;2228;48.140;11.488;2022-09-09T03:24:13;14.80;99.90
4431;DHT22;2228;48.140;11.488;2022-09-09T03:26:40;14.90;99.90
4431;DHT22;2228;48.140;11.488;2022-09-09T03:29:10;14.90;99.90
4431;DHT22;2228;48.140;11.488;2022-09-09T03:31:38;14.90;99.90
4431;DHT22;2228;48.140;11.488;2022-09-09T03:34:05;14.80;99.90
4431;DHT22;2228;48.140;11.488;2022-09-09T03:36:34;14.80;99.90
4431;DHT22;2228;48.140;11.488;2022-09-09T03:39:01;14.80;99.90
4431;DHT22;2228;48.140;11.488;2022-09-09T03:41:29;14.80;99.90
4431;DHT22;2228;48.140;11.488;2022-09-09T03:43:56;14.80;99.90
4431;DHT22;2228;48.140;11.488;2022-09-09T03:46:24;14.80;99.90
4431;DHT22;2228;48.140;11.488;2022-09-09T03:48:51;14.80;99.90
4431;DHT22;2228;48.140;11.488;2022-09-09T03:51:18;14.70;99.90
4431;DHT22;2228;48.140;11.488;2022-09-09T03:53:47;14.70;99.90
4431;DHT22;2228;48.140;11.488;2022-09-09T03:56:14;14.70;99.90
4431;DHT22;2228;48.140;11.488;2022-09-09T03:58:41;14.70;99.90
4431;DHT22;2228;48.140;11.488;2022-09-09T04:01:10;14.80;99.90
4431;DHT22;2228;48.140;11.488;2022-09-09T04:03:38;14.90;99.90
4431;DHT22;2228;48.140;11.488;2022-09-09T04:06:07;15.00;99.90
4431;DHT22;2228;48.140;11.488;2022-09-09T04:08:35;15.10;99.90
4431;DHT22;2228;48.140;11.488;2022-09-09T04:11:04;15.10;99.90
4431;DHT22;2228;48.140;11.488;2022-09-09T04:13:32;15.20;99.90
4431;DHT22;2228;48.140;11.488;2022-09-09T04:16:00;15.30;99.90
4431;DHT22;2228;48.140;11.488;2022-09-09T04:18:28;15.40;99.90
4431;DHT22;2228;48.140;11.488;2022-09-09T04:20:55;15.40;99.90
4431;DHT22;2228;48.140;11.488;2022-09-09T04:23:23;15.50;99.90
4431;DHT22;2228;48.140;11.488;2022-09-09T04:25:51;15.50;99.90
4431;DHT22;2228;48.140;11.488;2022-09-09T04:28:22;15.50;99.90
4431;DHT22;2228;48.140;11.488;2022-09-09T04:30:50;15.50;99.90
4431;DHT22;2228;48.140;11.488;2022-09-09T04:33:18;15.50;99.90
4431;DHT22;2228;48.140;11.488;2022-09-09T04:35:46;15.50;99.90
4431;DHT22;2228;48.140;11.488;2022-09-09T04:38:13;15.50;99.90
4431;DHT22;2228;48.140;11.488;2022-09-09T04:40:42;15.40;99.90
4431;DHT22;2228;48.140;11.488;2022-09-09T04:43:09;15.20;99.90
4431;DHT22;2228;48.140;11.488;2022-09-09T04:45:37;15.10;99.90
4431;DHT22;2228;48.140;11.488;2022-09-09T04:48:06;15.10;99.90
4431;DHT22;2228;48.140;11.488;2022-09-09T04:50:33;15.00;99.90
4431;DHT22;2228;48.140;11.488;2022-09-09T04:53:00;14.90;99.90
4431;DHT22;2228;48.140;11.488;2022-09-09T04:55:28;14.90;99.90
4431;DHT22;2228;48.140;11.488;2022-09-09T04:57:55;14.80;99.90
4431;DHT22;2228;48.140;11.488;2022-09-09T05:00:23;14.80;99.90
4431;DHT22;2228;48.140;11.488;2022-09-09T05:02:51;14.80;99.90
4431;DHT22;2228;48.140;11.488;2022-09-09T05:05:18;14.80;99.90
4431;DHT22;2228;48.140;11.488;2022-09-09T05:07:45;14.90;99.90
4431;DHT22;2228;48.140;11.488;2022-09-09T05:10:12;14.90;99.90
4431;DHT22;2228;48.140;11.488;2022-09-09T05:12:40;14.90;99.90
4431;DHT22;2228;48.140;11.488;2022-09-09T05:15:08;14.80;99.90
4431;DHT22;2228;48.140;11.488;2022-09-09T05:17:37;14.80;99.90
4431;DHT22;2228;48.140;11.488;2022-09-09T05:20:06;14.80;99.90
4431;DHT22;2228;48.140;11.488;2022-09-09T05:22:32;14.80;99.90
4431;DHT22;2228;48.140;11.488;2022-09-09T05:24:59;14.80;99.90
4431;DHT22;2228;48.140;11.488;2022-09-09T05:27:27;14.80;99.90
4431;DHT22;2228;48.140;11.488;2022-09-09T05:29:53;14.90;99.90
4431;DHT22;2228;48.140;11.488;2022-09-09T05:32:20;14.90;99.90
4431;DHT22;2228;48.140;11.488;2022-09-09T05:34:47;15.00;99.90
4431;DHT22;2228;48.140;11.488;2022-09-09T05:37:15;14.90;99.90
4431;DHT22;2228;48.140;11.488;2022-09-09T05:39:42;14.90;99.90
4431;DHT22;2228;48.140;11.488;2022-09-09T05:42:08;15.10;99.90
4431;DHT22;2228;48.140;11.488;2022-09-09T05:44:35;15.20;99.90
4431;DHT22;2228;48.140;11.488;2022-09-09T05:47:02;15.40;99.90
4431;DHT22;2228;48.140;11.488;2022-09-09T05:49:29;15.50;99.90
4431;DHT22;2228;48.140;11.488;2022-09-09T05:51:57;15.60;99.90
4431;DHT22;2228;48.140;11.488;2022-09-09T05:54:25;15.70;99.90
4431;DHT22;2228;48.140;11.488;2022-09-09T05:56:52;15.90;99.90
4431;DHT22;2228;48.140;11.488;2022-09-09T05:59:19;15.90;99.90
4431;DHT22;2228;48.140;11.488;2022-09-09T06:01:46;15.90;99.90
4431;DHT22;2228;48.140;11.488;2022-09-09T06:04:13;16.00;99.90
4431;DHT22;2228;48.140;11.488;2022-09-09T06:06:40;16.00;99.90
4431;DHT22;2228;48.140;11.488;2022-09-09T06:09:08;16.10;99.90
4431;DHT22;2228;48.140;11.488;2022-09-09T06:11:38;16.30;99.90
4431;DHT22;2228;48.140;11.488;2022-09-09T06:14:06;16.50;99.90
4431;DHT22;2228;48.140;11.488;2022-09-09T06:16:33;16.50;99.90
4431;DHT22;2228;48.140;11.488;2022-09-09T06:19:01;16.60;99.90
4431;DHT22;2228;48.140;11.488;2022-09-09T06:21:29;16.70;99.90
4431;DHT22;2228;48.140;11.488;2022-09-09T06:23:58;16.70;99.90
4431;DHT22;2228;48.140;11.488;2022-09-09T06:26:27;16.90;99.90
4431;DHT22;2228;48.140;11.488;2022-09-09T06:28:58;17.00;99.90
4431;DHT22;2228;48.140;11.488;2022-09-09T06:31:26;17.00;93.80
4431;DHT22;2228;48.140;11.488;2022-09-09T06:33:56;17.10;89.30
4431;DHT22;2228;48.140;11.488;2022-09-09T06:36:25;17.20;88.50
4431;DHT22;2228;48.140;11.488;2022-09-09T06:38:52;17.20;59.10
4431;DHT22;2228;48.140;11.488;2022-09-09T06:41:20;17.10;87.50
4431;DHT22;2228;48.140;11.488;2022-09-09T06:43:48;17.20;78.40
4431;DHT22;2228;48.140;11.488;2022-09-09T06:46:17;17.20;72.40
4431;DHT22;2228;48.140;11.488;2022-09-09T06:48:44;17.20;71.10
4431;DHT22;2228;48.140;11.488;2022-09-09T06:51:13;17.10;85.00
4431;DHT22;2228;48.140;11.488;2022-09-09T06:53:42;17.30;91.60
4431;DHT22;2228;48.140;11.488;2022-09-09T06:56:20;17.40;88.60
4431;DHT22;2228;48.140;11.488;2022-09-09T06:58:49;17.60;84.50
4431;DHT22;2228;48.140;11.488;2022-09-09T07:01:20;17.80;59.20
4431;DHT22;2228;48.140;11.488;2022-09-09T07:03:49;17.70;36.90
4431;DHT22;2228;48.140;11.488;2022-09-09T07:06:18;17.60;40.00
4431;DHT22;2228;48.140;11.488;2022-09-09T07:08:49;17.50;49.70
4431;DHT22;2228;48.140;11.488;2022-09-09T07:11:17;17.40;57.10
4431;DHT22;2228;48.140;11.488;2022-09-09T07:13:44;17.50;69.20
4431;DHT22;2228;48.140;11.488;2022-09-09T07:16:12;17.40;79.00
4431;DHT22;2228;48.140;11.488;2022-09-09T07:18:41;17.30;99.90
4431;DHT22;2228;48.140;11.488;2022-09-09T07:21:09;17.30;99.90
4431;DHT22;2228;48.140;11.488;2022-09-09T07:23:37;17.40;99.90
4431;DHT22;2228;48.140;11.488;2022-09-09T07:26:09;17.30;99.90
4431;DHT22;2228;48.140;11.488;2022-09-09T07:28:36;17.20;99.90
4431;DHT22;2228;48.140;11.488;2022-09-09T07:31:04;17.00;99.90
4431;DHT22;2228;48.140;11.488;2022-09-09T07:33:33;17.00;99.90
4431;DHT22;2228;48.140;11.488;2022-09-09T07:36:07;17.10;99.90
4431;DHT22;2228;48.140;11.488;2022-09-09T07:38:38;17.30;99.90
4431;DHT22;2228;48.140;11.488;2022-09-09T07:41:07;17.60;99.90
4431;DHT22;2228;48.140;11.488;2022-09-09T07:43:37;17.90;94.20
4431;DHT22;2228;48.140;11.488;2022-09-09T07:46:04;18.20;61.30
4431;DHT22;2228;48.140;11.488;2022-09-09T07:48:31;18.40;45.40
4431;DHT22;2228;48.140;11.488;2022-09-09T07:51:09;18.50;24.40
4431;DHT22;2228;48.140;11.488;2022-09-09T07:53:37;18.60;23.70
4431;DHT22;2228;48.140;11.488;2022-09-09T07:56:05;18.50;19.80
4431;DHT22;2228;48.140;11.488;2022-09-09T07:58:33;18.70;31.20
4431;DHT22;2228;48.140;11.488;2022-09-09T08:01:00;18.90;1.00
4431;DHT22;2228;48.140;11.488;2022-09-09T08:03:27;19.10;4.50
4431;DHT22;2228;48.140;11.488;2022-09-09T08:06:00;19.30;1.00
4431;DHT22;2228;48.140;11.488;2022-09-09T08:08:28;19.40;1.00
4431;DHT22;2228;48.140;11.488;2022-09-09T08:11:02;19.70;1.00
4431;DHT22;2228;48.140;11.488;2022-09-09T08:13:29;19.90;1.00
4431;DHT22;2228;48.140;11.488;2022-09-09T08:16:04;20.20;1.00
4431;DHT22;2228;48.140;11.488;2022-09-09T08:18:31;20.20;1.00
4431;DHT22;2228;48.140;11.488;2022-09-09T08:20:58;20.10;1.00
4431;DHT22;2228;48.140;11.488;2022-09-09T08:23:32;19.90;1.00
4431;DHT22;2228;48.140;11.488;2022-09-09T08:26:04;19.80;1.00
4431;DHT22;2228;48.140;11.488;2022-09-09T08:28:31;19.90;1.00
4431;DHT22;2228;48.140;11.488;2022-09-09T08:31:05;19.90;1.00
4431;DHT22;2228;48.140;11.488;2022-09-09T08:33:32;20.10;1.00
4431;DHT22;2228;48.140;11.488;2022-09-09T08:35:59;19.90;1.00
4431;DHT22;2228;48.140;11.488;2022-09-09T08:38:27;19.50;1.00
4431;DHT22;2228;48.140;11.488;2022-09-09T08:40:58;19.20;1.00
4431;DHT22;2228;48.140;11.488;2022-09-09T08:43:31;19.00;12.40
4431;DHT22;2228;48.140;11.488;2022-09-09T08:46:02;18.50;59.30
4431;DHT22;2228;48.140;11.488;2022-09-09T08:48:44;18.10;36.50
4431;DHT22;2228;48.140;11.488;2022-09-09T08:51:14;17.90;23.20
4431;DHT22;2228;48.140;11.488;2022-09-09T08:53:43;17.70;20.70
4431;DHT22;2228;48.140;11.488;2022-09-09T08:56:14;17.80;73.30
4431;DHT22;2228;48.140;11.488;2022-09-09T08:58:47;18.00;64.30
4431;DHT22;2228;48.140;11.488;2022-09-09T09:01:24;18.20;88.00
4431;DHT22;2228;48.140;11.488;2022-09-09T09:03:57;18.30;99.90
4431;DHT22;2228;48.140;11.488;2022-09-09T09:06:36;18.50;99.90
4431;DHT22;2228;48.140;11.488;2022-09-09T09:09:08;18.80;99.90
4431;DHT22;2228;48.140;11.488;2022-09-09T09:11:39;19.20;1.00
4431;DHT22;2228;48.140;11.488;2022-09-09T09:14:10;19.30;1.00
4431;DHT22;2228;48.140;11.488;2022-09-09T09:16:42;19.30;1.00
4431;DHT22;2228;48.140;11.488;2022-09-09T09:19:14;19.10;1.00
4431;DHT22;2228;48.140;11.488;2022-09-09T09:21:44;18.90;1.00
4431;DHT22;2228;48.140;11.488;2022-09-09T09:24:18;18.90;1.00
4431;DHT22;2228;48.140;11.488;2022-09-09T09:26:47;19.10;1.00
4431;DHT22;2228;48.140;11.488;2022-09-09T09:29:17;19.20;1.00
4431;DHT22;2228;48.140;11.488;2022-09-09T09:34:28;20.00;1.00
4431;DHT22;2228;48.140;11.488;2022-09-09T09:36:57;20.20;1.00
4431;DHT22;2228;48.140;11.488;2022-09-09T09:39:26;20.40;1.00
4431;DHT22;2228;48.140;11.488;2022-09-09T09:41:55;20.40;1.00
4431;DHT22;2228;48.140;11.488;2022-09-09T09:44:25;20.50;1.00
4431;DHT22;2228;48.140;11.488;2022-09-09T09:46:52;20.60;1.00
4431;DHT22;2228;48.140;11.488;2022-09-09T09:49:19;20.90;1.00
4431;DHT22;2228;48.140;11.488;2022-09-09T09:51:46;20.70;1.00
4431;DHT22;2228;48.140;11.488;2022-09-09T09:54:18;20.80;1.00
4431;DHT22;2228;48.140;11.488;2022-09-09T09:56:49;20.90;1.00
4431;DHT22;2228;48.140;11.488;2022-09-09T09:59:23;20.90;1.00
4431;DHT22;2228;48.140;11.488;2022-09-09T10:01:50;20.80;1.00
4431;DHT22;2228;48.140;11.488;2022-09-09T10:04:18;20.70;1.00
4431;DHT22;2228;48.140;11.488;2022-09-09T10:06:47;20.40;1.00
4431;DHT22;2228;48.140;11.488;2022-09-09T10:09:24;20.30;1.00
4431;DHT22;2228;48.140;11.488;2022-09-09T10:11:56;20.10;1.00
4431;DHT22;2228;48.140;11.488;2022-09-09T10:14:33;19.90;1.00
4431;DHT22;2228;48.140;11.488;2022-09-09T10:17:13;19.70;1.00
4431;DHT22;2228;48.140;11.488;2022-09-09T10:19:53;19.80;1.00
4431;DHT22;2228;48.140;11.488;2022-09-09T10:22:26;19.90;1.00
4431;DHT22;2228;48.140;11.488;2022-09-09T10:25:30;20.20;1.00
4431;DHT22;2228;48.140;11.488;2022-09-09T10:28:17;20.50;1.00
4431;DHT22;2228;48.140;11.488;2022-09-09T10:30:56;20.50;1.00
4431;DHT22;2228;48.140;11.488;2022-09-09T10:33:30;20.40;1.00
4431;DHT22;2228;48.140;11.488;2022-09-09T10:36:02;20.60;1.00
4431;DHT22;2228;48.140;11.488;2022-09-09T10:38:39;21.00;1.00
4431;DHT22;2228;48.140;11.488;2022-09-09T10:41:17;21.40;1.00
4431;DHT22;2228;48.140;11.488;2022-09-09T10:44:17;21.70;1.00
4431;DHT22;2228;48.140;11.488;2022-09-09T10:47:05;21.80;1.00
4431;DHT22;2228;48.140;11.488;2022-09-09T10:50:00;22.10;1.00
4431;DHT22;2228;48.140;11.488;2022-09-09T10:52:32;22.50;1.00
4431;DHT22;2228;48.140;11.488;2022-09-09T10:55:10;22.80;1.00
4431;DHT22;2228;48.140;11.488;2022-09-09T10:57:40;23.10;1.00
4431;DHT22;2228;48.140;11.488;2022-09-09T11:00:16;23.00;1.00
4431;DHT22;2228;48.140;11.488;2022-09-09T11:02:50;23.00;1.00
4431;DHT22;2228;48.140;11.488;2022-09-09T11:05:21;23.40;1.00
4431;DHT22;2228;48.140;11.488;2022-09-09T11:07:55;23.60;1.00
4431;DHT22;2228;48.140;11.488;2022-09-09T11:10:26;24.00;1.00
4431;DHT22;2228;48.140;11.488;2022-09-09T11:13:01;24.50;1.00
4431;DHT22;2228;48.140;11.488;2022-09-09T11:15:35;24.40;1.00
4431;DHT22;2228;48.140;11.488;2022-09-09T11:18:13;24.20;1.00
4431;DHT22;2228;48.140;11.488;2022-09-09T11:20:43;24.90;1.00
4431;DHT22;2228;48.140;11.488;2022-09-09T11:23:14;25.60;1.00
4431;DHT22;2228;48.140;11.488;2022-09-09T11:25:45;26.00;1.00
4431;DHT22;2228;48.140;11.488;2022-09-09T11:28:32;25.90;1.00
4431;DHT22;2228;48.140;11.488;2022-09-09T11:31:17;25.60;1.00
4431;DHT22;2228;48.140;11.488;2022-09-09T11:34:12;26.00;1.00
4431;DHT22;2228;48.140;11.488;2022-09-09T11:36:58;26.30;1.00
4431;DHT22;2228;48.140;11.488;2022-09-09T11:39:53;26.50;1.00
4431;DHT22;2228;48.140;11.488;2022-09-09T11:42:27;26.30;1.00
4431;DHT22;2228;48.140;11.488;2022-09-09T11:44:54;25.40;1.00
4431;DHT22;2228;48.140;11.488;2022-09-09T11:47:25;24.70;1.00
4431;DHT22;2228;48.140;11.488;2022-09-09T11:50:08;24.40;1.00
4431;DHT22;2228;48.140;11.488;2022-09-09T11:52:39;24.30;1.00
4431;DHT22;2228;48.140;11.488;2022-09-09T11:55:09;23.90;1.00
4431;DHT22;2228;48.140;11.488;2022-09-09T11:57:37;23.70;1.00
4431;DHT22;2228;48.140;11.488;2022-09-09T12:00:06;23.40;1.00
4431;DHT22;2228;48.140;11.488;2022-09-09T12:02:33;22.80;1.00
4431;DHT22;2228;48.140;11.488;2022-09-09T12:05:07;22.90;1.00
4431;DHT22;2228;48.140;11.488;2022-09-09T12:07:36;23.00;1.00
4431;DHT22;2228;48.140;11.488;2022-09-09T12:10:20;23.20;1.00
4431;DHT22;2228;48.140;11.488;2022-09-09T12:12:48;23.40;1.00
4431;DHT22;2228;48.140;11.488;2022-09-09T12:15:25;23.90;1.00
4431;DHT22;2228;48.140;11.488;2022-09-09T12:17:55;24.70;1.00
4431;DHT22;2228;48.140;11.488;2022-09-09T12:20:30;25.90;1.00
4431;DHT22;2228;48.140;11.488;2022-09-09T12:23:17;26.40;1.00
4431;DHT22;2228;48.140;11.488;2022-09-09T12:25:58;26.40;1.00
4431;DHT22;2228;48.140;11.488;2022-09-09T12:28:39;25.60;1.00
4431;DHT22;2228;48.140;11.488;2022-09-09T12:31:11;25.50;1.00
4431;DHT22;2228;48.140;11.488;2022-09-09T12:33:44;26.00;1.00
4431;DHT22;2228;48.140;11.488;2022-09-09T12:36:16;26.50;1.00
4431;DHT22;2228;48.140;11.488;2022-09-09T12:38:45;26.50;1.00
4431;DHT22;2228;48.140;11.488;2022-09-09T12:41:20;26.30;1.00
4431;DHT22;2228;48.140;11.488;2022-09-09T12:43:47;26.00;1.00
4431;DHT22;2228;48.140;11.488;2022-09-09T12:46:22;25.70;1.00
4431;DHT22;2228;48.140;11.488;2022-09-09T12:48:52;25.40;1.00
4431;DHT22;2228;48.140;11.488;2022-09-09T12:51:27;25.10;1.00
4431;DHT22;2228;48.140;11.488;2022-09-09T12:53:55;24.80;1.00
4431;DHT22;2228;48.140;11.488;2022-09-09T12:56:24;25.00;1.00
4431;DHT22;2228;48.140;11.488;2022-09-09T12:58:54;25.20;1.00
4431;DHT22;2228;48.140;11.488;2022-09-09T13:01:23;25.10;1.00
4431;DHT22;2228;48.140;11.488;2022-09-09T13:03:50;24.70;1.00
4431;DHT22;2228;48.140;11.488;2022-09-09T13:06:23;23.50;1.00
4431;DHT22;2228;48.140;11.488;2022-09-09T13:08:51;23.50;1.00
4431;DHT22;2228;48.140;11.488;2022-09-09T13:11:21;23.50;1.00
4431;DHT22;2228;48.140;11.488;2022-09-09T13:13:54;23.30;1.00
4431;DHT22;2228;48.140;11.488;2022-09-09T13:16:25;22.80;1.00
4431;DHT22;2228;48.140;11.488;2022-09-09T13:18:57;23.00;1.00
4431;DHT22;2228;48.140;11.488;2022-09-09T13:21:33;23.50;1.00
4431;DHT22;2228;48.140;11.488;2022-09-09T13:24:01;24.20;1.00
4431;DHT22;2228;48.140;11.488;2022-09-09T13:26:29;25.20;1.00
4431;DHT22;2228;48.140;11.488;2022-09-09T13:29:08;25.20;1.00
4431;DHT22;2228;48.140;11.488;2022-09-09T13:31:42;25.80;1.00
4431;DHT22;2228;48.140;11.488;2022-09-09T13:34:13;26.50;1.00
4431;DHT22;2228;48.140;11.488;2022-09-09T13:36:46;26.70;1.00
4431;DHT22;2228;48.140;11.488;2022-09-09T13:39:16;26.50;1.00
4431;DHT22;2228;48.140;11.488;2022-09-09T13:41:45;25.60;1.00
4431;DHT22;2228;48.140;11.488;2022-09-09T13:44:19;25.10;1.00
4431;DHT22;2228;48.140;11.488;2022-09-09T13:46:46;24.20;1.00
4431;DHT22;2228;48.140;11.488;2022-09-09T13:49:21;23.90;1.00
4431;DHT22;2228;48.140;11.488;2022-09-09T13:51:50;23.30;1.00
4431;DHT22;2228;48.140;11.488;2022-09-09T13:54:20;23.10;1.00
4431;DHT22;2228;48.140;11.488;2022-09-09T13:56:48;23.10;1.00
4431;DHT22;2228;48.140;11.488;2022-09-09T13:59:18;22.90;1.00
4431;DHT22;2228;48.140;11.488;2022-09-09T14:01:45;22.50;1.00
4431;DHT22;2228;48.140;11.488;2022-09-09T14:04:12;22.50;1.00
4431;DHT22;2228;48.140;11.488;2022-09-09T14:06:40;22.60;1.00
4431;DHT22;2228;48.140;11.488;2022-09-09T14:09:13;22.00;1.00
4431;DHT22;2228;48.140;11.488;2022-09-09T14:11:41;21.60;1.00
4431;DHT22;2228;48.140;11.488;2022-09-09T14:14:08;21.60;1.00
4431;DHT22;2228;48.140;11.488;2022-09-09T14:16:35;21.40;1.00
4431;DHT22;2228;48.140;11.488;2022-09-09T14:19:03;21.50;1.00
4431;DHT22;2228;48.140;11.488;2022-09-09T14:21:30;21.60;1.00
4431;DHT22;2228;48.140;11.488;2022-09-09T14:23:58;21.70;1.00
4431;DHT22;2228;48.140;11.488;2022-09-09T14:26:26;21.70;1.00
4431;DHT22;2228;48.140;11.488;2022-09-09T14:28:54;21.70;1.00
4431;DHT22;2228;48.140;11.488;2022-09-09T14:31:21;21.70;1.00
4431;DHT22;2228;48.140;11.488;2022-09-09T14:33:48;21.90;1.00
4431;DHT22;2228;48.140;11.488;2022-09-09T14:36:16;21.90;1.00
4431;DHT22;2228;48.140;11.488;2022-09-09T14:38:43;21.90;1.00
4431;DHT22;2228;48.140;11.488;2022-09-09T14:41:11;22.00;1.00
4431;DHT22;2228;48.140;11.488;2022-09-09T14:43:39;22.00;1.00
4431;DHT22;2228;48.140;11.488;2022-09-09T14:46:07;21.60;1.00
4431;DHT22;2228;48.140;11.488;2022-09-09T14:48:34;21.40;1.00
4431;DHT22;2228;48.140;11.488;2022-09-09T14:51:06;21.30;1.00
4431;DHT22;2228;48.140;11.488;2022-09-09T14:53:33;21.00;1.00
4431;DHT22;2228;48.140;11.488;2022-09-09T14:56:04;20.90;1.00
4431;DHT22;2228;48.140;11.488;2022-09-09T14:58:32;20.70;1.00
4431;DHT22;2228;48.140;11.488;2022-09-09T15:01:04;20.60;1.00
4431;DHT22;2228;48.140;11.488;2022-09-09T15:03:31;20.50;1.00
4431;DHT22;2228;48.140;11.488;2022-09-09T15:05:58;20.60;1.00
4431;DHT22;2228;48.140;11.488;2022-09-09T15:08:30;19.60;1.00
4431;DHT22;2228;48.140;11.488;2022-09-09T15:10:59;20.80;1.00
4431;DHT22;2228;48.140;11.488;2022-09-09T15:13:27;20.70;1.00
4431;DHT22;2228;48.140;11.488;2022-09-09T15:15:53;21.00;1.00
4431;DHT22;2228;48.140;11.488;2022-09-09T15:18:22;21.70;1.00
4431;DHT22;2228;48.140;11.488;2022-09-09T15:20:48;22.40;1.00
4431;DHT22;2228;48.140;11.488;2022-09-09T15:23:16;23.10;1.00
4431;DHT22;2228;48.140;11.488;2022-09-09T15:25:52;23.30;1.00
4431;DHT22;2228;48.140;11.488;2022-09-09T15:28:20;23.00;1.00
4431;DHT22;2228;48.140;11.488;2022-09-09T15:30:48;22.90;1.00
4431;DHT22;2228;48.140;11.488;2022-09-09T15:33:15;22.50;1.00
4431;DHT22;2228;48.140;11.488;2022-09-09T15:35:43;22.40;1.00
4431;DHT22;2228;48.140;11.488;2022-09-09T15:38:11;22.80;1.00
4431;DHT22;2228;48.140;11.488;2022-09-09T15:40:38;23.80;1.00
4431;DHT22;2228;48.140;11.488;2022-09-09T15:43:06;25.20;1.00
4431;DHT22;2228;48.140;11.488;2022-09-09T15:45:33;26.00;1.00
4431;DHT22;2228;48.140;11.488;2022-09-09T15:48:00;27.70;1.00
4431;DHT22;2228;48.140;11.488;2022-09-09T15:50:27;28.50;1.00
4431;DHT22;2228;48.140;11.488;2022-09-09T15:52:57;29.20;1.00
4431;DHT22;2228;48.140;11.488;2022-09-09T15:55:24;28.70;1.00
4431;DHT22;2228;48.140;11.488;2022-09-09T15:57:51;28.00;1.00
4431;DHT22;2228;48.140;11.488;2022-09-09T16:00:19;26.10;1.00
4431;DHT22;2228;48.140;11.488;2022-09-09T16:02:48;24.80;1.00
4431;DHT22;2228;48.140;11.488;2022-09-09T16:05:15;24.00;1.00
4431;DHT22;2228;48.140;11.488;2022-09-09T16:07:42;23.30;1.00
4431;DHT22;2228;48.140;11.488;2022-09-09T16:10:11;22.50;1.00
4431;DHT22;2228;48.140;11.488;2022-09-09T16:12:39;22.00;1.00
4431;DHT22;2228;48.140;11.488;2022-09-09T16:15:06;22.40;1.00
4431;DHT22;2228;48.140;11.488;2022-09-09T16:17:33;23.60;1.00
4431;DHT22;2228;48.140;11.488;2022-09-09T16:20:04;24.90;1.00